Time;durP1;ratioP1;P1;durP2;ratioP2;P2;SDS_P1;SDS_P2;PMS_P1;PMS_P2;Temp;Humidity;BMP_temperature;BMP_pressure;BME280_temperature;BME280_humidity;BME280_pressure;Samples;Min_cycle;Max_cycle;Signal;HPM_P1;HPM_P2
2022/10/10 00:00:04;;;;;;;46.53;42.95;;;16.20;90.90;;;;;;4982180;28;20563;-79
2022/10/10 00:02:30;;;;;;;49.22;45.67;;;16.20;90.90;;;;;;4991936;28;20517;-79
2022/10/10 00:04:56;;;;;;;44.97;41.88;;;16.20;91.10;;;;;;4976407;28;20033;-79
2022/10/10 00:07:22;;;;;;;47.28;44.25;;;16.20;90.90;;;;;;5007883;28;20042;-79
2022/10/10 00:09:48;;;;;;;46.20;43.10;;;16.20;90.90;;;;;;5008596;28;20049;-79
2022/10/10 00:12:14;;;;;;;46.28;42.88;;;16.10;90.90;;;;;;4971716;28;20038;-79
2022/10/10 00:14:40;;;;;;;46.85;43.67;;;16.10;91.00;;;;;;4994839;28;20037;-79
2022/10/10 00:17:07;;;;;;;44.20;41.10;;;16.10;91.10;;;;;;5007538;28;20038;-78
2022/10/10 00:19:33;;;;;;;43.53;39.95;;;16.10;91.00;;;;;;4997261;28;20050;-79
2022/10/10 00:21:59;;;;;;;41.08;37.90;;;16.10;91.10;;;;;;4991618;28;20046;-79
2022/10/10 00:24:25;;;;;;;42.67;39.92;;;16.10;91.10;;;;;;4992380;28;20048;-79
2022/10/10 00:26:51;;;;;;;43.10;39.88;;;16.00;91.70;;;;;;5007608;28;20034;-79
2022/10/10 00:29:17;;;;;;;41.20;38.47;;;16.00;91.20;;;;;;4994213;28;20049;-79
2022/10/10 00:31:43;;;;;;;39.42;36.53;;;16.10;91.30;;;;;;4993619;28;20038;-78
2022/10/10 00:34:09;;;;;;;39.28;35.92;;;16.00;91.10;;;;;;4986830;28;20041;-78
2022/10/10 00:36:35;;;;;;;39.10;36.13;;;16.10;91.20;;;;;;4990156;28;20394;-79
2022/10/10 00:39:01;;;;;;;36.78;33.63;;;16.00;91.20;;;;;;4992869;28;20045;-78
2022/10/10 00:41:28;;;;;;;34.17;31.77;;;16.10;91.30;;;;;;5010375;28;20030;-78
2022/10/10 00:44:12;;;;;;;33.80;31.42;;;16.10;91.00;;;;;;4972197;28;20042;-78
2022/10/10 00:46:38;;;;;;;32.63;30.10;;;16.00;91.00;;;;;;4974539;28;20514;-78
2022/10/10 00:49:08;;;;;;;34.10;31.33;;;16.00;91.00;;;;;;4988238;28;20065;-78
2022/10/10 00:51:34;;;;;;;35.22;33.00;;;16.00;91.00;;;;;;4976715;28;20042;-78
2022/10/10 00:54:03;;;;;;;36.90;33.80;;;15.90;91.10;;;;;;4976137;28;20046;-78
2022/10/10 00:56:41;;;;;;;39.13;35.42;;;15.90;91.10;;;;;;4954705;28;20050;-79
2022/10/10 00:59:09;;;;;;;36.13;33.60;;;15.80;91.20;;;;;;4961068;28;20045;-79
2022/10/10 01:01:36;;;;;;;36.05;33.17;;;15.80;91.20;;;;;;4968562;28;20038;-78
2022/10/10 01:04:02;;;;;;;33.88;31.50;;;15.80;91.30;;;;;;4978534;28;20039;-78
2022/10/10 01:06:28;;;;;;;35.30;32.83;;;15.70;91.20;;;;;;4990539;28;20480;-79
2022/10/10 01:08:55;;;;;;;36.63;33.53;;;15.70;91.20;;;;;;4964498;28;20407;-79
2022/10/10 01:11:21;;;;;;;36.55;33.75;;;15.70;91.40;;;;;;4982349;28;20038;-78
2022/10/10 01:14:12;;;;;;;36.38;33.80;;;15.70;91.40;;;;;;4975966;28;20035;-79
2022/10/10 01:16:50;;;;;;;36.88;34.00;;;15.70;91.40;;;;;;4989293;28;20041;-79
2022/10/10 01:19:42;;;;;;;35.55;32.67;;;15.70;91.40;;;;;;4975191;28;20042;-79
2022/10/10 01:22:38;;;;;;;34.42;32.05;;;15.60;91.60;;;;;;4959267;28;20046;-78
2022/10/10 01:25:19;;;;;;;31.10;28.75;;;15.70;91.80;;;;;;4984182;28;20030;-79
2022/10/10 01:27:50;;;;;;;26.92;24.60;;;15.70;91.80;;;;;;4974525;28;20046;-79
2022/10/10 01:30:18;;;;;;;26.70;24.02;;;15.60;91.80;;;;;;4977264;28;20383;-78
2022/10/10 01:32:56;;;;;;;26.67;24.58;;;15.70;92.10;;;;;;4966168;28;20034;-78
2022/10/10 01:35:31;;;;;;;28.05;24.73;;;15.70;92.60;;;;;;4975838;28;20050;-78
2022/10/10 01:38:15;;;;;;;27.75;25.17;;;15.80;92.40;;;;;;4975729;28;20376;-78
2022/10/10 01:41:09;;;;;;;28.02;25.50;;;15.80;92.50;;;;;;4996356;28;20412;-79
2022/10/10 01:43:36;;;;;;;29.60;26.88;;;15.90;92.60;;;;;;4971821;28;20038;-79
2022/10/10 01:46:10;;;;;;;29.75;26.63;;;15.90;92.40;;;;;;4979279;28;20041;-79
2022/10/10 01:48:36;;;;;;;31.67;26.70;;;15.90;92.50;;;;;;4977472;28;20061;-79
2022/10/10 01:51:17;;;;;;;30.08;27.20;;;15.90;92.60;;;;;;4957726;28;20042;-79
2022/10/10 01:53:56;;;;;;;36.00;33.30;;;15.90;92.70;;;;;;4974208;28;20043;-78
2022/10/10 01:56:22;;;;;;;33.58;30.58;;;15.90;92.80;;;;;;4974267;28;20049;-79
2022/10/10 01:59:09;;;;;;;33.47;30.90;;;15.90;92.80;;;;;;4993682;28;20030;-79
2022/10/10 02:01:50;;;;;;;31.73;28.75;;;15.90;92.60;;;;;;4991787;28;20486;-79
2022/10/10 02:04:22;;;;;;;32.83;29.77;;;15.80;92.50;;;;;;4982990;28;20046;-79
2022/10/10 02:06:54;;;;;;;33.40;30.40;;;15.80;92.60;;;;;;4984845;28;20402;-79
2022/10/10 02:09:30;;;;;;;33.30;30.40;;;15.90;92.60;;;;;;4981583;28;20507;-79
2022/10/10 02:11:57;;;;;;;32.95;30.08;;;15.80;92.60;;;;;;4969762;28;20440;-79
2022/10/10 02:14:26;;;;;;;34.47;31.77;;;15.80;92.70;;;;;;4943213;28;20050;-79
2022/10/10 02:16:53;;;;;;;35.92;33.33;;;15.80;92.70;;;;;;4973648;28;20042;-79
2022/10/10 02:19:20;;;;;;;37.83;34.60;;;15.80;92.70;;;;;;4988911;28;20049;-79
2022/10/10 02:21:46;;;;;;;34.40;31.58;;;15.70;92.70;;;;;;4963460;28;20046;-79
2022/10/10 02:24:13;;;;;;;32.22;28.85;;;15.70;92.70;;;;;;4991726;28;20042;-79
2022/10/10 02:26:40;;;;;;;35.90;32.83;;;15.70;92.70;;;;;;4966777;28;20043;-79
2022/10/10 02:29:27;;;;;;;36.65;33.78;;;15.70;92.80;;;;;;4955906;28;20530;-79
2022/10/10 02:32:06;;;;;;;42.05;38.47;;;15.60;92.60;;;;;;4962191;28;20043;-79
2022/10/10 02:34:37;;;;;;;43.78;40.53;;;15.70;92.70;;;;;;4991396;28;20027;-79
2022/10/10 02:37:06;;;;;;;42.55;38.83;;;15.60;92.70;;;;;;4953792;28;20038;-79
2022/10/10 02:39:34;;;;;;;43.67;40.33;;;15.70;92.60;;;;;;4964761;28;20030;-79
2022/10/10 02:42:02;;;;;;;44.25;40.50;;;15.70;92.40;;;;;;4978338;28;20035;-79
2022/10/10 02:44:28;;;;;;;42.88;39.85;;;15.60;92.40;;;;;;4966497;28;20026;-78
2022/10/10 02:46:54;;;;;;;43.97;40.90;;;15.60;92.50;;;;;;4960391;28;20435;-79
2022/10/10 02:49:26;;;;;;;42.20;39.03;;;15.60;92.50;;;;;;4960030;28;20058;-78
2022/10/10 02:51:52;;;;;;;42.30;38.78;;;15.50;92.50;;;;;;4960640;28;20484;-79
2022/10/10 02:54:18;;;;;;;40.20;36.92;;;15.50;92.50;;;;;;4966588;28;20038;-78
2022/10/10 02:56:44;;;;;;;40.40;37.70;;;15.50;92.40;;;;;;4983572;28;20402;-78
2022/10/10 02:59:10;;;;;;;42.75;39.72;;;15.50;92.40;;;;;;4973361;28;20027;-78
2022/10/10 03:01:36;;;;;;;43.83;40.38;;;15.40;92.40;;;;;;4966374;28;20042;-78
2022/10/10 03:04:02;;;;;;;42.42;39.33;;;15.30;92.60;;;;;;4991715;28;20042;-78
2022/10/10 03:06:28;;;;;;;43.13;40.13;;;15.30;92.60;;;;;;4984509;28;20034;-78
2022/10/10 03:08:55;;;;;;;42.90;39.95;;;15.20;92.50;;;;;;4971713;28;20491;-78
2022/10/10 03:11:21;;;;;;;37.95;35.13;;;15.20;92.60;;;;;;4959352;28;20035;-78
2022/10/10 03:13:47;;;;;;;35.08;31.90;;;15.30;92.50;;;;;;4975386;28;20390;-78
2022/10/10 03:16:13;;;;;;;33.90;31.50;;;15.30;92.40;;;;;;4990137;28;20213;-78
2022/10/10 03:18:39;;;;;;;32.33;29.65;;;15.40;92.30;;;;;;4974135;28;20065;-78
2022/10/10 03:21:05;;;;;;;31.25;28.70;;;15.40;92.30;;;;;;4989077;28;20061;-79
2022/10/10 03:23:31;;;;;;;31.35;28.40;;;15.30;92.20;;;;;;4946157;28;20042;-78
2022/10/10 03:25:57;;;;;;;32.13;29.63;;;15.30;92.10;;;;;;4988561;28;20037;-79
2022/10/10 03:28:23;;;;;;;32.90;30.50;;;15.30;92.40;;;;;;4975206;28;20050;-79
2022/10/10 03:30:49;;;;;;;35.03;32.30;;;15.20;92.20;;;;;;4982852;28;20030;-78
2022/10/10 03:33:16;;;;;;;34.97;32.38;;;15.20;92.50;;;;;;4967776;28;20026;-78
2022/10/10 03:35:42;;;;;;;35.97;33.38;;;15.20;92.60;;;;;;4986171;28;20039;-79
2022/10/10 03:38:09;;;;;;;37.67;34.63;;;15.20;92.60;;;;;;4999554;28;20035;-78
2022/10/10 03:40:38;;;;;;;38.83;36.05;;;15.10;92.50;;;;;;4983207;28;20383;-79
2022/10/10 03:43:04;;;;;;;39.78;36.80;;;15.20;92.90;;;;;;4989838;28;20038;-79
2022/10/10 03:45:30;;;;;;;35.05;32.30;;;15.20;92.60;;;;;;4995695;28;20398;-78
2022/10/10 03:47:56;;;;;;;41.47;38.60;;;15.20;92.60;;;;;;4991519;28;20038;-78
2022/10/10 03:50:22;;;;;;;38.40;35.42;;;15.30;93.00;;;;;;4975303;28;20046;-80
2022/10/10 03:52:48;;;;;;;35.80;33.28;;;15.20;92.70;;;;;;4976993;28;20510;-78
2022/10/10 03:55:14;;;;;;;37.25;34.13;;;15.20;93.10;;;;;;4972214;28;20049;-79
2022/10/10 03:57:41;;;;;;;39.00;35.70;;;15.30;93.20;;;;;;4987197;28;20479;-79
2022/10/10 04:00:08;;;;;;;39.30;36.50;;;15.30;93.30;;;;;;4955888;28;20035;-79
2022/10/10 04:02:34;;;;;;;40.90;37.45;;;15.30;93.70;;;;;;4981474;28;20026;-79
2022/10/10 04:05:00;;;;;;;44.88;40.92;;;15.30;93.30;;;;;;4974658;28;20019;-79
2022/10/10 04:07:27;;;;;;;41.83;38.55;;;15.30;93.30;;;;;;4991394;28;20035;-80
2022/10/10 04:09:53;;;;;;;41.78;38.30;;;15.30;93.20;;;;;;4978132;28;20034;-80
2022/10/10 04:12:19;;;;;;;42.88;39.33;;;15.30;93.30;;;;;;4959816;28;20038;-80
2022/10/10 04:14:45;;;;;;;36.65;33.88;;;15.20;93.40;;;;;;4987494;28;20034;-80
2022/10/10 04:17:11;;;;;;;34.35;31.45;;;15.30;93.60;;;;;;4975291;28;20046;-81
2022/10/10 04:19:38;;;;;;;37.05;34.33;;;15.40;93.90;;;;;;4973183;28;20030;-80
2022/10/10 04:22:04;;;;;;;37.90;34.38;;;15.40;93.50;;;;;;4982164;28;20054;-80
2022/10/10 04:24:30;;;;;;;34.95;31.85;;;15.30;94.40;;;;;;4969659;28;20035;-80
2022/10/10 04:26:56;;;;;;;35.03;31.75;;;15.40;94.00;;;;;;4975209;28;20460;-80
2022/10/10 04:29:22;;;;;;;38.13;35.33;;;15.40;94.40;;;;;;4978792;28;20030;-80
2022/10/10 04:31:48;;;;;;;39.50;36.17;;;15.50;93.90;;;;;;4978692;28;20398;-80
2022/10/10 04:34:14;;;;;;;41.47;38.28;;;15.50;93.70;;;;;;4968830;28;20035;-80
2022/10/10 04:36:40;;;;;;;38.58;35.47;;;15.50;93.70;;;;;;4972356;28;20038;-80
2022/10/10 04:39:07;;;;;;;39.15;35.90;;;15.40;93.70;;;;;;4983086;28;20034;-81
2022/10/10 04:41:33;;;;;;;40.45;37.10;;;15.40;93.90;;;;;;4979008;28;20030;-81
2022/10/10 04:43:59;;;;;;;38.42;35.20;;;15.50;94.00;;;;;;4975447;28;20412;-81
2022/10/10 04:46:25;;;;;;;35.92;32.83;;;15.60;94.00;;;;;;4974782;28;20039;-80
2022/10/10 04:48:51;;;;;;;35.35;32.25;;;15.50;93.90;;;;;;4958928;28;20058;-80
2022/10/10 04:51:17;;;;;;;38.28;34.67;;;15.50;94.00;;;;;;4959640;28;20035;-81
2022/10/10 04:53:44;;;;;;;36.47;33.38;;;15.50;94.00;;;;;;4991413;28;20042;-80
2022/10/10 04:56:10;;;;;;;35.60;32.53;;;15.50;94.00;;;;;;4994223;28;20038;-81
2022/10/10 04:58:36;;;;;;;35.95;32.92;;;15.50;94.00;;;;;;4963105;28;20042;-81
2022/10/10 05:01:03;;;;;;;34.65;31.92;;;15.60;94.10;;;;;;4977246;28;20035;-80
2022/10/10 05:03:29;;;;;;;36.65;33.35;;;15.60;94.10;;;;;;4994775;28;20034;-80
2022/10/10 05:05:55;;;;;;;36.60;33.55;;;15.60;94.10;;;;;;4962567;28;20030;-81
2022/10/10 05:08:21;;;;;;;36.47;33.08;;;15.60;94.10;;;;;;4975551;28;20027;-81
2022/10/10 05:10:47;;;;;;;34.42;31.73;;;15.60;94.10;;;;;;4977567;28;20042;-81
2022/10/10 05:13:14;;;;;;;34.47;31.65;;;15.70;94.30;;;;;;4973852;28;20042;-80
2022/10/10 05:15:41;;;;;;;36.17;33.10;;;15.70;94.10;;;;;;4977823;28;20026;-81
2022/10/10 05:18:07;;;;;;;33.47;30.55;;;15.70;94.10;;;;;;4974133;28;20039;-80
2022/10/10 05:20:35;;;;;;;35.55;32.85;;;15.70;94.60;;;;;;4958678;28;20490;-81
2022/10/10 05:23:01;;;;;;;34.08;31.27;;;15.80;94.50;;;;;;4958058;28;20050;-80
2022/10/10 05:25:28;;;;;;;33.58;30.77;;;15.80;94.20;;;;;;4962133;28;20061;-81
2022/10/10 05:27:54;;;;;;;37.80;34.22;;;15.80;94.30;;;;;;4976291;28;20053;-80
2022/10/10 05:30:20;;;;;;;33.35;30.30;;;15.80;94.20;;;;;;4976368;28;20049;-81
2022/10/10 05:32:46;;;;;;;34.50;31.10;;;15.80;94.20;;;;;;4982622;28;20502;-80
2022/10/10 05:35:12;;;;;;;35.35;31.88;;;15.80;94.40;;;;;;4980244;28;20038;-80
2022/10/10 05:37:38;;;;;;;37.75;33.17;;;15.80;94.40;;;;;;4985686;28;20030;-80
2022/10/10 05:40:05;;;;;;;34.00;30.75;;;15.90;94.40;;;;;;4997207;28;20042;-80
2022/10/10 05:42:31;;;;;;;38.33;34.70;;;15.90;94.40;;;;;;4969530;28;20476;-80
2022/10/10 05:44:57;;;;;;;38.35;35.33;;;15.80;94.40;;;;;;4975426;28;20034;-81
2022/10/10 05:47:24;;;;;;;37.33;34.00;;;15.90;94.60;;;;;;4977909;28;20057;-82
2022/10/10 05:49:50;;;;;;;35.17;31.65;;;15.90;94.50;;;;;;4989433;28;20031;-79
2022/10/10 05:52:17;;;;;;;34.78;31.35;;;15.90;94.40;;;;;;4975507;28;20155;-79
2022/10/10 05:54:43;;;;;;;36.58;32.03;;;15.90;94.50;;;;;;4985995;28;20046;-79
2022/10/10 05:57:09;;;;;;;35.50;31.63;;;15.90;94.50;;;;;;4981487;28;20038;-81
2022/10/10 05:59:35;;;;;;;33.22;29.65;;;15.90;94.60;;;;;;4983290;28;20039;-80
2022/10/10 06:02:01;;;;;;;34.38;28.25;;;15.90;94.60;;;;;;4976217;28;20050;-80
2022/10/10 06:04:27;;;;;;;31.52;27.80;;;15.90;94.60;;;;;;4974990;28;20114;-80
2022/10/10 06:06:53;;;;;;;32.05;28.75;;;15.90;94.80;;;;;;4958486;28;20038;-80
2022/10/10 06:09:19;;;;;;;31.30;28.02;;;15.90;94.80;;;;;;4942203;28;20050;-80
2022/10/10 06:11:45;;;;;;;38.88;27.42;;;15.90;94.90;;;;;;4976158;28;20035;-80
2022/10/10 06:14:11;;;;;;;32.35;28.15;;;15.90;94.90;;;;;;4992407;28;20038;-80
2022/10/10 06:16:38;;;;;;;34.47;28.10;;;15.90;94.90;;;;;;4945101;28;20035;-80
2022/10/10 06:19:04;;;;;;;31.52;28.30;;;16.00;95.00;;;;;;4958458;28;20507;-81
2022/10/10 06:21:30;;;;;;;38.80;27.75;;;16.00;94.90;;;;;;4988738;28;20047;-80
2022/10/10 06:23:56;;;;;;;34.13;30.00;;;16.00;94.90;;;;;;4993101;28;20039;-80
2022/10/10 06:26:23;;;;;;;33.08;29.88;;;16.00;94.90;;;;;;4972517;28;20054;-82
2022/10/10 06:28:49;;;;;;;38.33;33.38;;;16.00;94.90;;;;;;4994902;28;20034;-82
2022/10/10 06:31:15;;;;;;;46.33;41.78;;;16.10;95.00;;;;;;4991042;28;20043;-82
2022/10/10 06:33:44;;;;;;;46.10;42.58;;;16.10;95.30;;;;;;4977827;28;20023;-82
2022/10/10 06:36:11;;;;;;;41.42;37.30;;;16.10;95.10;;;;;;4977820;28;20023;-83
2022/10/10 06:38:38;;;;;;;39.95;36.40;;;16.20;95.10;;;;;;4995968;28;20044;-82
2022/10/10 06:41:04;;;;;;;38.45;34.88;;;16.20;95.20;;;;;;4989491;28;20033;-82
2022/10/10 06:43:30;;;;;;;39.38;35.33;;;16.30;95.70;;;;;;4978898;28;20033;-85
2022/10/10 06:45:56;;;;;;;47.00;40.65;;;16.30;95.10;;;;;;4971358;28;20517;-85
2022/10/10 06:48:23;;;;;;;43.47;39.65;;;16.30;95.20;;;;;;4973315;28;20038;-83
2022/10/10 06:50:56;;;;;;;39.90;36.10;;;16.30;95.10;;;;;;4987767;28;20072;-83
2022/10/10 06:53:22;;;;;;;43.97;39.78;;;16.30;95.20;;;;;;4994175;28;20026;-82
2022/10/10 06:55:48;;;;;;;38.22;34.42;;;16.30;95.20;;;;;;4992906;28;20041;-83
2022/10/10 06:58:14;;;;;;;42.90;32.05;;;16.30;95.30;;;;;;4981912;28;20072;-82
2022/10/10 07:00:40;;;;;;;38.17;30.17;;;16.30;95.50;;;;;;4973921;28;20395;-82
2022/10/10 07:03:08;;;;;;;36.47;31.02;;;16.30;95.50;;;;;;4974079;28;20039;-83
2022/10/10 07:05:34;;;;;;;42.28;31.48;;;16.40;95.60;;;;;;4973854;28;20041;-83
2022/10/10 07:08:00;;;;;;;41.13;31.17;;;16.30;97.00;;;;;;4992632;28;20027;-82
2022/10/10 07:10:26;;;;;;;36.63;32.63;;;16.40;97.00;;;;;;4991890;28;20046;-84
2022/10/10 07:12:53;;;;;;;50.35;32.50;;;16.50;97.00;;;;;;4979461;28;20050;-85
2022/10/10 07:15:19;;;;;;;37.60;31.58;;;16.50;97.80;;;;;;4983460;28;20034;-83
2022/10/10 07:17:45;;;;;;;36.05;32.00;;;16.60;96.70;;;;;;4973362;28;20027;-86
2022/10/10 07:20:11;;;;;;;44.85;33.03;;;16.60;97.10;;;;;;5002675;28;20050;-85
2022/10/10 07:22:37;;;;;;;39.40;32.22;;;16.60;97.10;;;;;;4974279;28;20039;-85
2022/10/10 07:25:03;;;;;;;41.95;32.25;;;16.70;96.60;;;;;;4973038;28;20034;-86
2022/10/10 07:27:29;;;;;;;40.97;34.95;;;16.70;97.40;;;;;;4972689;28;20035;-86
2022/10/10 07:29:56;;;;;;;44.55;33.28;;;16.70;97.00;;;;;;4972829;28;20047;-85
2022/10/10 07:32:22;;;;;;;55.95;36.55;;;16.70;97.20;;;;;;4981455;28;20038;-84
2022/10/10 07:34:49;;;;;;;49.00;35.90;;;16.60;98.30;;;;;;4988849;28;20046;-83
2022/10/10 07:37:15;;;;;;;43.33;33.90;;;16.60;98.80;;;;;;4996323;28;20034;-84
2022/10/10 07:39:41;;;;;;;42.92;34.38;;;16.50;99.50;;;;;;4973015;28;20043;-85
2022/10/10 07:42:07;;;;;;;44.45;35.78;;;16.40;99.90;;;;;;4972304;28;20053;-82
2022/10/10 07:44:34;;;;;;;45.70;37.17;;;16.50;99.60;;;;;;4992548;28;20042;-84
2022/10/10 07:47:00;;;;;;;44.38;37.35;;;16.60;98.80;;;;;;4975381;28;20038;-85
2022/10/10 07:49:26;;;;;;;50.92;39.90;;;16.70;98.30;;;;;;4981284;28;20050;-84
2022/10/10 07:51:52;;;;;;;53.50;47.55;;;16.80;97.80;;;;;;4972700;28;20031;-85
2022/10/10 07:54:18;;;;;;;47.15;42.05;;;16.80;97.80;;;;;;4970747;28;20065;-85
2022/10/10 07:56:44;;;;;;;51.03;45.63;;;16.90;97.40;;;;;;4991954;28;20038;-82
2022/10/10 07:59:10;;;;;;;53.42;47.65;;;16.90;97.90;;;;;;4960072;28;20031;-85
2022/10/10 08:01:36;;;;;;;63.40;57.33;;;17.00;97.40;;;;;;4992025;28;20377;-86
2022/10/10 08:04:02;;;;;;;64.85;58.35;;;17.00;97.10;;;;;;4991904;28;20034;-87
2022/10/10 08:06:31;;;;;;;58.75;52.88;;;17.10;97.00;;;;;;4979866;28;20038;-87
2022/10/10 08:08:57;;;;;;;52.00;46.90;;;17.10;97.00;;;;;;4982271;28;20475;-87
2022/10/10 08:11:23;;;;;;;49.97;44.50;;;17.00;97.50;;;;;;4971547;28;20035;-82
2022/10/10 08:13:50;;;;;;;57.03;50.15;;;17.00;97.50;;;;;;4973419;28;20055;-83
2022/10/10 08:16:16;;;;;;;60.45;52.65;;;17.00;98.00;;;;;;4960307;28;20034;-82
2022/10/10 08:18:42;;;;;;;53.88;47.85;;;17.00;97.50;;;;;;4975460;28;20031;-81
2022/10/10 08:21:10;;;;;;;55.53;44.45;;;17.00;97.90;;;;;;4971850;28;20526;-83
2022/10/10 08:23:36;;;;;;;58.47;44.63;;;17.10;97.60;;;;;;4971523;28;20042;-84
2022/10/10 08:26:05;;;;;;;49.13;41.30;;;17.10;97.40;;;;;;4976970;28;20046;-81
2022/10/10 08:28:32;;;;;;;56.25;42.40;;;17.20;98.20;;;;;;4974977;28;20042;-82
2022/10/10 08:30:58;;;;;;;55.53;39.42;;;17.20;97.80;;;;;;4960554;28;20043;-81
2022/10/10 08:33:27;;;;;;;54.38;39.78;;;17.30;97.60;;;;;;4976720;28;20061;-81
2022/10/10 08:35:53;;;;;;;62.28;55.53;;;17.40;97.50;;;;;;4988405;28;20023;-84
2022/10/10 08:38:19;;;;;;;57.30;48.65;;;17.50;97.50;;;;;;4953382;28;20043;-81
2022/10/10 08:40:48;;;;;;;52.03;36.35;;;17.60;97.70;;;;;;4982619;28;20046;-81
2022/10/10 08:43:45;;;;;;;49.15;35.83;;;17.70;98.30;;;;;;4973617;28;20396;-82
2022/10/10 08:46:18;;;;;;;52.30;35.22;;;17.90;98.10;;;;;;4967671;28;20042;-82
2022/10/10 08:48:44;;;;;;;59.10;37.33;;;18.00;98.10;;;;;;4975595;28;20027;-81
2022/10/10 08:51:14;;;;;;;52.58;35.58;;;18.10;97.60;;;;;;4974046;28;20043;-84
2022/10/10 08:53:43;;;;;;;54.53;37.78;;;18.30;97.60;;;;;;4955990;28;20471;-84
2022/10/10 08:56:13;;;;;;;52.72;44.08;;;18.30;97.40;;;;;;4979930;28;20054;-83
2022/10/10 08:58:47;;;;;;;62.30;56.08;;;18.30;97.20;;;;;;4974694;28;20034;-84
2022/10/10 09:01:15;;;;;;;71.75;64.80;;;18.40;97.00;;;;;;4973822;28;20391;-82
2022/10/10 09:03:44;;;;;;;68.90;61.78;;;18.30;97.10;;;;;;4975360;28;20039;-83
2022/10/10 09:06:34;;;;;;;74.80;67.60;;;18.30;97.30;;;;;;4983770;28;20042;-83
2022/10/10 09:09:10;;;;;;;74.03;67.65;;;18.30;97.40;;;;;;4972868;28;20034;-83
2022/10/10 09:11:55;;;;;;;62.10;55.65;;;18.30;97.40;;;;;;4956280;28;20047;-83
2022/10/10 09:14:35;;;;;;;67.47;61.20;;;18.20;97.80;;;;;;4969253;28;20041;-83
2022/10/10 09:17:01;;;;;;;70.38;64.53;;;18.20;97.60;;;;;;4993665;28;20034;-82
2022/10/10 09:19:54;;;;;;;60.88;54.17;;;18.20;97.70;;;;;;4982912;28;20031;-81
2022/10/10 09:22:22;;;;;;;48.22;43.30;;;18.20;97.90;;;;;;4976263;28;20057;-82
2022/10/10 09:24:55;;;;;;;52.47;46.75;;;18.20;98.10;;;;;;4994166;28;20038;-80
2022/10/10 09:27:23;;;;;;;51.78;46.35;;;18.30;97.70;;;;;;4974987;28;20041;-81
2022/10/10 09:30:02;;;;;;;54.65;46.65;;;18.40;97.60;;;;;;4958866;28;20031;-81
2022/10/10 09:32:33;;;;;;;53.97;48.78;;;18.40;97.70;;;;;;4970054;28;20030;-85
2022/10/10 09:35:04;;;;;;;71.15;65.28;;;18.40;97.70;;;;;;4962121;28;20054;-83
2022/10/10 09:37:37;;;;;;;76.68;69.75;;;18.50;98.00;;;;;;4993858;28;20026;-84
2022/10/10 09:40:13;;;;;;;80.97;73.45;;;18.50;97.40;;;;;;4977453;28;20035;-84
2022/10/10 09:42:39;;;;;;;78.93;71.32;;;18.60;97.70;;;;;;4992512;28;20031;-82
2022/10/10 09:45:19;;;;;;;72.82;66.72;;;18.60;97.60;;;;;;4971133;28;20043;-84
2022/10/10 09:47:52;;;;;;;71.93;64.60;;;18.70;97.50;;;;;;4971329;28;20464;-84
2022/10/10 09:50:18;;;;;;;74.90;68.05;;;18.70;97.70;;;;;;4977628;28;20039;-86
2022/10/10 09:52:44;;;;;;;80.40;73.75;;;18.60;97.80;;;;;;4974524;28;20368;-85
2022/10/10 09:55:24;;;;;;;78.05;71.32;;;18.50;98.00;;;;;;4974909;28;20034;-88
2022/10/10 09:57:51;;;;;;;81.70;74.70;;;18.50;98.30;;;;;;4968752;28;20039;-87
2022/10/10 10:00:17;;;;;;;66.63;60.28;;;18.50;98.20;;;;;;4961117;28;20042;-89
2022/10/10 10:03:02;;;;;;;81.25;73.57;;;18.60;97.90;;;;;;4987375;28;20039;-87
2022/10/10 10:05:28;;;;;;;74.30;67.35;;;18.60;97.90;;;;;;4972699;28;20057;-87
2022/10/10 10:07:54;;;;;;;72.88;66.32;;;18.70;97.80;;;;;;4989692;28;20022;-89
2022/10/10 10:10:25;;;;;;;73.07;66.80;;;18.70;97.50;;;;;;4952142;28;20051;-86
2022/10/10 10:12:51;;;;;;;79.18;72.05;;;18.80;97.40;;;;;;4968735;28;20048;-84
2022/10/10 10:15:28;;;;;;;66.32;59.88;;;18.70;97.90;;;;;;4973409;28;20798;-84
2022/10/10 10:18:18;;;;;;;68.95;62.40;;;18.70;97.90;;;;;;4966660;28;20026;-84
2022/10/10 10:20:45;;;;;;;88.75;82.07;;;18.70;97.90;;;;;;4985565;28;20045;-85
2022/10/10 10:23:48;;;;;;;80.15;72.68;;;18.70;97.90;;;;;;4977189;28;20026;-86
2022/10/10 10:26:19;;;;;;;81.20;73.78;;;18.70;97.80;;;;;;4975061;28;20030;-85
2022/10/10 10:28:46;;;;;;;75.28;69.25;;;18.70;97.60;;;;;;4974745;28;20030;-86
2022/10/10 10:31:18;;;;;;;77.25;70.13;;;18.70;97.80;;;;;;4971073;28;20050;-86
2022/10/10 10:33:44;;;;;;;76.97;70.65;;;18.70;97.80;;;;;;4992606;28;20029;-86
2022/10/10 10:36:16;;;;;;;74.70;68.78;;;18.70;97.90;;;;;;4989114;28;20038;-85
2022/10/10 10:38:49;;;;;;;79.95;72.65;;;18.70;97.40;;;;;;4978391;28;20384;-85
2022/10/10 10:41:18;;;;;;;67.72;61.30;;;18.80;97.70;;;;;;4972210;28;20045;-83
2022/10/10 10:43:54;;;;;;;64.30;57.65;;;19.00;97.60;;;;;;4986277;28;20035;-84
2022/10/10 10:46:38;;;;;;;59.22;52.88;;;19.10;97.50;;;;;;4970740;28;20519;-85
2022/10/10 10:49:49;;;;;;;54.88;47.33;;;19.40;97.40;;;;;;4980234;28;20475;-85
2022/10/10 10:53:05;;;;;;;58.67;52.70;;;19.50;96.30;;;;;;4990344;28;20497;-83
2022/10/10 10:55:55;;;;;;;53.13;47.83;;;19.70;95.80;;;;;;4951610;28;20448;-86
2022/10/10 10:58:54;;;;;;;50.10;44.75;;;19.70;95.80;;;;;;4935151;29;20039;-86
2022/10/10 11:01:35;;;;;;;50.45;39.03;;;19.80;95.50;;;;;;4951982;28;20034;-85
2022/10/10 11:04:01;;;;;;;;;;;19.90;94.80;;;;;;4936522;28;20519;-84
2022/10/10 11:07:01;;;;;;;45.70;40.15;;;20.00;93.70;;;;;;4952223;28;19925;-85
2022/10/10 11:09:30;;;;;;;44.97;38.10;;;20.10;93.60;;;;;;4949130;28;20147;-88
2022/10/10 11:12:11;;;;;;;54.28;44.60;;;20.20;93.30;;;;;;4945849;28;20597;-90
2022/10/10 11:14:48;;;;;;;45.00;38.38;;;20.30;93.70;;;;;;4952852;28;20058;-89
2022/10/10 11:17:54;;;;;;;54.88;49.58;;;20.30;92.40;;;;;;4951503;28;20401;-83
2022/10/10 11:20:20;;;;;;;57.67;51.72;;;20.30;93.30;;;;;;4937983;29;20039;-84
2022/10/10 11:23:11;;;;;;;65.18;59.22;;;20.40;92.50;;;;;;4951953;28;20039;-81
2022/10/10 11:25:54;;;;;;;50.70;45.60;;;20.40;92.00;;;;;;4933469;29;20038;-83
2022/10/10 11:28:39;;;;;;;53.22;41.75;;;20.10;92.50;;;;;;4919890;29;20073;-83
2022/10/10 11:31:09;;;;;;;52.58;39.88;;;20.00;92.80;;;;;;4956049;28;20046;-83
2022/10/10 11:33:43;;;;;;;50.30;39.60;;;19.90;93.10;;;;;;4962856;28;20037;-79
2022/10/10 11:36:21;;;;;;;51.53;40.30;;;19.80;93.00;;;;;;4993536;28;20049;-84
2022/10/10 11:39:10;;;;;;;50.17;40.85;;;19.60;93.40;;;;;;4990551;28;20034;-83
2022/10/10 11:42:01;;;;;;;54.95;41.85;;;19.50;93.60;;;;;;4975658;28;20352;-84
2022/10/10 11:44:31;;;;;;;;;;;19.60;93.90;;;;;;4984912;28;20038;-84
2022/10/10 11:46:59;;;;;;;53.53;38.45;;;19.60;93.90;;;;;;4996059;28;19917;-87
2022/10/10 11:49:57;;;;;;;54.80;41.53;;;19.80;93.60;;;;;;5010234;28;20038;-88
2022/10/10 11:52:33;;;;;;;51.08;43.88;;;19.90;92.70;;;;;;4988067;28;20061;-84
2022/10/10 11:55:09;;;;;;;54.00;43.70;;;19.90;93.10;;;;;;4986113;28;20379;-84
2022/10/10 11:58:04;;;;;;;52.45;40.70;;;20.10;93.20;;;;;;5001978;28;20038;-84
2022/10/10 12:00:42;;;;;;;47.15;42.05;;;20.20;92.90;;;;;;4951270;28;20038;-85
2022/10/10 12:03:08;;;;;;;51.83;46.72;;;20.30;92.00;;;;;;4922028;28;20046;-84
2022/10/10 12:05:37;;;;;;;58.38;53.30;;;20.50;91.70;;;;;;4939775;28;20051;-85
2022/10/10 12:08:20;;;;;;;53.85;49.17;;;20.50;91.30;;;;;;4955209;28;20031;-84
2022/10/10 12:10:57;;;;;;;59.35;49.25;;;20.40;91.00;;;;;;4937117;28;20055;-84
2022/10/10 12:13:34;;;;;;;58.75;49.30;;;20.50;91.20;;;;;;4939192;28;20499;-84
2022/10/10 12:16:19;;;;;;;54.33;48.42;;;20.60;90.80;;;;;;4936930;28;20042;-84
2022/10/10 12:18:49;;;;;;;51.72;46.08;;;20.60;90.70;;;;;;4969794;28;20045;-84
2022/10/10 12:21:17;;;;;;;52.92;44.40;;;20.70;90.60;;;;;;4937247;28;20127;-84
2022/10/10 12:23:48;;;;;;;49.67;44.58;;;20.60;90.70;;;;;;4928946;28;20035;-84
2022/10/10 12:26:20;;;;;;;54.30;48.67;;;20.80;91.60;;;;;;4954509;28;20082;-84
2022/10/10 12:29:05;;;;;;;48.58;43.45;;;21.00;90.50;;;;;;4953496;28;20031;-84
2022/10/10 12:31:32;;;;;;;51.55;46.15;;;21.20;90.80;;;;;;4953637;28;20571;-83
2022/10/10 12:34:00;;;;;;;50.63;46.30;;;21.40;89.90;;;;;;4947047;28;20035;-84
2022/10/10 12:36:26;;;;;;;51.85;46.40;;;21.40;87.10;;;;;;4956717;28;20487;-84
2022/10/10 12:39:08;;;;;;;51.72;46.53;;;21.40;88.90;;;;;;5026704;28;20508;-84
2022/10/10 12:41:55;;;;;;;52.00;46.60;;;21.50;85.80;;;;;;4995741;28;20042;-84
2022/10/10 12:44:22;;;;;;;55.05;49.38;;;21.50;86.10;;;;;;5009535;28;20022;-84